St. Paul, Alberta

Past 24 Hour Conditions

This table is a summary of hourly weather conditions for the past 24 hours. This summary includes the following parameters: temperature, humidity, dew point, wind speed and direction, air pressure, visibility and/or wind chill and humidex.
Date / Time
(MDT)
Conditions Temp (°F) Humidity (%) Dew Point (°F) Wind (mph) Pressure (inches) Visibility (miles)
21 September 2014
7:00 N/A 43 86 39 S 2 N/A N/A
6:00 N/A 44 79 38 SSW 3 N/A N/A
5:00 N/A 46 74 38 SW 4 N/A N/A
4:00 N/A 42 79 37 SSW 5 N/A N/A
3:00 N/A 40   84 36 SSW 2 N/A N/A
2:00 N/A 41 81 36 calm N/A N/A
1:00 N/A 41 83 36 S 2 N/A N/A
00:00 N/A 41 82 36 S 3 N/A N/A
20 September 2014
23:00 N/A 42 80 36 S 4 N/A N/A
22:00 N/A 44 74 36 SSW 3 N/A N/A
21:00 N/A 48 63 36 S 3 N/A N/A
20:00 N/A 54 47 34 SSW 2 N/A N/A
19:00 N/A 62 34 33 WSW 5 N/A N/A
18:00 N/A 66 29 32 W 11 N/A N/A
17:00 N/A 66 29 33 WSW 13 N/A N/A
16:00 N/A 67   29 33 W 13 N/A N/A
15:00 N/A 66 30 34 W 15 N/A N/A
14:00 N/A 64 32 34 WNW 11 N/A N/A
13:00 N/A 63 34 35 WNW 14 N/A N/A
12:00 N/A 62 37 35 WNW 15 N/A N/A
11:00 N/A 59 44 37 W 13 N/A N/A
10:00 N/A 54 53 37 W 14 N/A N/A
9:00 N/A 50 64 38 WSW 13 N/A N/A
8:00 N/A 44 74 36 WSW 8 N/A N/A
7:00 N/A 42 77 36 WSW 9 N/A N/A
N/A
Not available
 ↑ 
Highest temperature
 ↓ 
Lowest temperature

If you require additional historical weather information, please visit Climate Data Online.